sensor_id;sensor_type;location;lat;lon;timestamp;temperature;humidity
42365;DHT22;28498;54.400;18.566;2023-04-24T00:01:08;11.60;86.20
42365;DHT22;28498;54.400;18.566;2023-04-24T00:03:36;11.50;83.50
42365;DHT22;28498;54.400;18.566;2023-04-24T00:06:04;11.40;83.90
42365;DHT22;28498;54.400;18.566;2023-04-24T00:08:32;11.40;85.60
42365;DHT22;28498;54.400;18.566;2023-04-24T00:10:59;11.30;90.10
42365;DHT22;28498;54.400;18.566;2023-04-24T00:13:26;11.30;91.10
42365;DHT22;28498;54.400;18.566;2023-04-24T00:15:55;11.20;89.30
42365;DHT22;28498;54.400;18.566;2023-04-24T00:18:22;11.20;90.90
42365;DHT22;28498;54.400;18.566;2023-04-24T00:20:49;11.20;90.10
42365;DHT22;28498;54.400;18.566;2023-04-24T00:23:16;11.10;91.00
42365;DHT22;28498;54.400;18.566;2023-04-24T00:25:43;11.10;91.30
42365;DHT22;28498;54.400;18.566;2023-04-24T00:28:10;11.00;91.60
42365;DHT22;28498;54.400;18.566;2023-04-24T00:30:37;11.00;92.20
42365;DHT22;28498;54.400;18.566;2023-04-24T00:33:04;11.00;91.70
42365;DHT22;28498;54.400;18.566;2023-04-24T00:35:31;11.00;93.30
42365;DHT22;28498;54.400;18.566;2023-04-24T00:37:58;10.90;93.00
42365;DHT22;28498;54.400;18.566;2023-04-24T00:40:27;10.90;92.70
42365;DHT22;28498;54.400;18.566;2023-04-24T00:42:54;10.80;92.10
42365;DHT22;28498;54.400;18.566;2023-04-24T00:45:22;10.80;91.80
42365;DHT22;28498;54.400;18.566;2023-04-24T00:47:49;10.80;92.20
42365;DHT22;28498;54.400;18.566;2023-04-24T00:50:20;10.80;93.40
42365;DHT22;28498;54.400;18.566;2023-04-24T00:52:48;10.70;92.80
42365;DHT22;28498;54.400;18.566;2023-04-24T00:55:15;10.70;94.60
42365;DHT22;28498;54.400;18.566;2023-04-24T00:57:43;10.70;94.90
42365;DHT22;28498;54.400;18.566;2023-04-24T01:00:11;10.70;93.80
42365;DHT22;28498;54.400;18.566;2023-04-24T01:02:42;10.70;94.10
42365;DHT22;28498;54.400;18.566;2023-04-24T01:05:13;10.70;94.90
42365;DHT22;28498;54.400;18.566;2023-04-24T01:07:43;10.70;93.20
42365;DHT22;28498;54.400;18.566;2023-04-24T01:10:13;10.70;93.50
42365;DHT22;28498;54.400;18.566;2023-04-24T01:12:40;10.60;93.40
42365;DHT22;28498;54.400;18.566;2023-04-24T01:15:08;10.60;95.70
42365;DHT22;28498;54.400;18.566;2023-04-24T01:17:35;10.50;96.90
42365;DHT22;28498;54.400;18.566;2023-04-24T01:20:03;10.50;96.40
42365;DHT22;28498;54.400;18.566;2023-04-24T01:22:35;10.50;96.60
42365;DHT22;28498;54.400;18.566;2023-04-24T01:25:03;10.40;98.70
42365;DHT22;28498;54.400;18.566;2023-04-24T01:27:30;10.40;98.50
42365;DHT22;28498;54.400;18.566;2023-04-24T01:29:57;10.50;98.80
42365;DHT22;28498;54.400;18.566;2023-04-24T01:32:25;10.40;99.70
42365;DHT22;28498;54.400;18.566;2023-04-24T01:34:53;10.40;99.10
42365;DHT22;28498;54.400;18.566;2023-04-24T01:37:21;10.50;99.90
42365;DHT22;28498;54.400;18.566;2023-04-24T01:39:48;10.50;99.90
42365;DHT22;28498;54.400;18.566;2023-04-24T01:42:16;10.50;99.80
42365;DHT22;28498;54.400;18.566;2023-04-24T01:44:43;10.60;99.30
42365;DHT22;28498;54.400;18.566;2023-04-24T01:47:11;10.50;98.90
42365;DHT22;28498;54.400;18.566;2023-04-24T01:49:38;10.60;98.60
42365;DHT22;28498;54.400;18.566;2023-04-24T01:52:06;10.60;98.90
42365;DHT22;28498;54.400;18.566;2023-04-24T01:54:33;10.60;98.50
42365;DHT22;28498;54.400;18.566;2023-04-24T01:57:00;10.50;99.70
42365;DHT22;28498;54.400;18.566;2023-04-24T01:59:28;10.50;99.30
42365;DHT22;28498;54.400;18.566;2023-04-24T02:01:56;10.50;99.00
42365;DHT22;28498;54.400;18.566;2023-04-24T02:04:23;10.50;97.20
42365;DHT22;28498;54.400;18.566;2023-04-24T02:06:50;10.50;96.90
42365;DHT22;28498;54.400;18.566;2023-04-24T02:09:17;10.50;97.00
42365;DHT22;28498;54.400;18.566;2023-04-24T02:11:44;10.40;97.70
42365;DHT22;28498;54.400;18.566;2023-04-24T02:14:11;10.50;98.20
42365;DHT22;28498;54.400;18.566;2023-04-24T02:16:38;10.50;97.00
42365;DHT22;28498;54.400;18.566;2023-04-24T02:19:05;10.40;95.80
42365;DHT22;28498;54.400;18.566;2023-04-24T02:21:32;10.50;97.20
42365;DHT22;28498;54.400;18.566;2023-04-24T02:24:00;10.50;97.00
42365;DHT22;28498;54.400;18.566;2023-04-24T02:26:27;10.50;95.90
42365;DHT22;28498;54.400;18.566;2023-04-24T02:28:54;10.50;96.10
42365;DHT22;28498;54.400;18.566;2023-04-24T02:31:21;10.50;95.70
42365;DHT22;28498;54.400;18.566;2023-04-24T02:33:48;10.40;95.10
42365;DHT22;28498;54.400;18.566;2023-04-24T02:36:15;10.40;95.00
42365;DHT22;28498;54.400;18.566;2023-04-24T02:38:42;10.40;95.90
42365;DHT22;28498;54.400;18.566;2023-04-24T02:41:08;10.40;95.50
42365;DHT22;28498;54.400;18.566;2023-04-24T02:43:36;10.50;94.60
42365;DHT22;28498;54.400;18.566;2023-04-24T02:46:03;10.40;93.00
42365;DHT22;28498;54.400;18.566;2023-04-24T02:48:30;10.40;93.70
42365;DHT22;28498;54.400;18.566;2023-04-24T02:50:57;10.40;93.80
42365;DHT22;28498;54.400;18.566;2023-04-24T02:53:24;10.40;93.20
42365;DHT22;28498;54.400;18.566;2023-04-24T02:55:51;10.30;93.90
42365;DHT22;28498;54.400;18.566;2023-04-24T02:58:18;10.30;94.20
42365;DHT22;28498;54.400;18.566;2023-04-24T03:00:47;10.30;95.10
42365;DHT22;28498;54.400;18.566;2023-04-24T03:03:14;10.30;92.30
42365;DHT22;28498;54.400;18.566;2023-04-24T03:05:42;10.30;94.90
42365;DHT22;28498;54.400;18.566;2023-04-24T03:08:09;10.30;94.50
42365;DHT22;28498;54.400;18.566;2023-04-24T03:10:37;10.30;93.30
42365;DHT22;28498;54.400;18.566;2023-04-24T03:13:04;10.20;94.00
42365;DHT22;28498;54.400;18.566;2023-04-24T03:15:31;10.20;93.70
42365;DHT22;28498;54.400;18.566;2023-04-24T03:17:58;10.20;93.10
42365;DHT22;28498;54.400;18.566;2023-04-24T03:20:25;10.20;90.70
42365;DHT22;28498;54.400;18.566;2023-04-24T03:22:52;10.10;93.30
42365;DHT22;28498;54.400;18.566;2023-04-24T03:25:19;10.10;94.50
42365;DHT22;28498;54.400;18.566;2023-04-24T03:27:46;10.10;94.50
42365;DHT22;28498;54.400;18.566;2023-04-24T03:30:13;10.10;95.10
42365;DHT22;28498;54.400;18.566;2023-04-24T03:32:40;10.10;93.10
42365;DHT22;28498;54.400;18.566;2023-04-24T03:35:07;10.00;92.30
42365;DHT22;28498;54.400;18.566;2023-04-24T03:37:35;10.00;94.80
42365;DHT22;28498;54.400;18.566;2023-04-24T03:40:02;10.00;94.00
42365;DHT22;28498;54.400;18.566;2023-04-24T03:42:29;10.00;92.00
42365;DHT22;28498;54.400;18.566;2023-04-24T03:44:56;10.00;93.30
42365;DHT22;28498;54.400;18.566;2023-04-24T03:47:23;10.00;93.10
42365;DHT22;28498;54.400;18.566;2023-04-24T03:49:50;10.00;91.90
42365;DHT22;28498;54.400;18.566;2023-04-24T03:52:17;9.90;84.70
42365;DHT22;28498;54.400;18.566;2023-04-24T03:54:44;9.80;81.40
42365;DHT22;28498;54.400;18.566;2023-04-24T03:57:11;9.80;82.30
42365;DHT22;28498;54.400;18.566;2023-04-24T03:59:38;9.80;85.30
42365;DHT22;28498;54.400;18.566;2023-04-24T04:02:05;9.80;91.40
42365;DHT22;28498;54.400;18.566;2023-04-24T04:04:32;9.80;90.80
42365;DHT22;28498;54.400;18.566;2023-04-24T04:06:59;9.90;90.50
42365;DHT22;28498;54.400;18.566;2023-04-24T04:09:29;9.80;81.80
42365;DHT22;28498;54.400;18.566;2023-04-24T04:11:56;9.90;75.00
42365;DHT22;28498;54.400;18.566;2023-04-24T04:14:23;9.80;77.50
42365;DHT22;28498;54.400;18.566;2023-04-24T04:16:51;9.80;82.10
42365;DHT22;28498;54.400;18.566;2023-04-24T04:19:20;9.80;80.20
42365;DHT22;28498;54.400;18.566;2023-04-24T04:21:47;9.90;79.80
42365;DHT22;28498;54.400;18.566;2023-04-24T04:24:19;9.90;73.50
42365;DHT22;28498;54.400;18.566;2023-04-24T04:26:51;9.90;71.40
42365;DHT22;28498;54.400;18.566;2023-04-24T04:29:18;10.00;80.30
42365;DHT22;28498;54.400;18.566;2023-04-24T04:31:45;10.00;66.60
42365;DHT22;28498;54.400;18.566;2023-04-24T04:34:13;10.10;63.00
42365;DHT22;28498;54.400;18.566;2023-04-24T04:36:41;10.10;61.00
42365;DHT22;28498;54.400;18.566;2023-04-24T04:39:08;10.20;56.30
42365;DHT22;28498;54.400;18.566;2023-04-24T04:41:35;10.10;51.60
42365;DHT22;28498;54.400;18.566;2023-04-24T04:44:02;10.10;49.80
42365;DHT22;28498;54.400;18.566;2023-04-24T04:46:31;10.10;46.10
42365;DHT22;28498;54.400;18.566;2023-04-24T04:49:03;10.10;48.70
42365;DHT22;28498;54.400;18.566;2023-04-24T04:51:30;10.10;44.90
42365;DHT22;28498;54.400;18.566;2023-04-24T04:53:57;10.00;43.30
42365;DHT22;28498;54.400;18.566;2023-04-24T04:56:24;10.10;44.90
42365;DHT22;28498;54.400;18.566;2023-04-24T04:58:52;10.10;44.70
42365;DHT22;28498;54.400;18.566;2023-04-24T05:01:19;10.20;44.80
42365;DHT22;28498;54.400;18.566;2023-04-24T05:03:46;10.30;40.20
42365;DHT22;28498;54.400;18.566;2023-04-24T05:06:13;10.40;34.90
42365;DHT22;28498;54.400;18.566;2023-04-24T05:08:40;10.50;33.40
42365;DHT22;28498;54.400;18.566;2023-04-24T05:11:07;10.50;31.00
42365;DHT22;28498;54.400;18.566;2023-04-24T05:13:34;10.50;23.80
42365;DHT22;28498;54.400;18.566;2023-04-24T05:16:06;10.60;22.10
42365;DHT22;28498;54.400;18.566;2023-04-24T05:18:34;10.60;21.90
42365;DHT22;28498;54.400;18.566;2023-04-24T05:21:00;10.70;18.30
42365;DHT22;28498;54.400;18.566;2023-04-24T05:23:28;10.70;21.00
42365;DHT22;28498;54.400;18.566;2023-04-24T05:25:55;10.80;18.70
42365;DHT22;28498;54.400;18.566;2023-04-24T05:28:22;10.60;25.20
42365;DHT22;28498;54.400;18.566;2023-04-24T05:30:49;10.70;26.40
42365;DHT22;28498;54.400;18.566;2023-04-24T05:33:16;10.70;22.30
42365;DHT22;28498;54.400;18.566;2023-04-24T05:35:43;10.80;16.00
42365;DHT22;28498;54.400;18.566;2023-04-24T05:38:14;10.90;16.40
42365;DHT22;28498;54.400;18.566;2023-04-24T05:40:44;10.80;26.60
42365;DHT22;28498;54.400;18.566;2023-04-24T05:43:11;11.00;22.70
42365;DHT22;28498;54.400;18.566;2023-04-24T05:45:39;11.10;6.90
42365;DHT22;28498;54.400;18.566;2023-04-24T05:48:06;11.00;20.40
42365;DHT22;28498;54.400;18.566;2023-04-24T05:50:33;10.90;17.30
42365;DHT22;28498;54.400;18.566;2023-04-24T05:53:03;11.00;24.70
42365;DHT22;28498;54.400;18.566;2023-04-24T05:55:31;10.90;27.10
42365;DHT22;28498;54.400;18.566;2023-04-24T05:57:58;10.90;25.60
42365;DHT22;28498;54.400;18.566;2023-04-24T06:00:26;10.90;29.70
42365;DHT22;28498;54.400;18.566;2023-04-24T06:02:53;10.90;41.50
42365;DHT22;28498;54.400;18.566;2023-04-24T06:05:21;10.90;31.50
42365;DHT22;28498;54.400;18.566;2023-04-24T06:07:49;10.90;34.00
42365;DHT22;28498;54.400;18.566;2023-04-24T06:10:16;11.00;28.70
42365;DHT22;28498;54.400;18.566;2023-04-24T06:12:43;10.90;30.90
42365;DHT22;28498;54.400;18.566;2023-04-24T06:15:10;11.00;26.80
42365;DHT22;28498;54.400;18.566;2023-04-24T06:17:38;11.00;13.30
42365;DHT22;28498;54.400;18.566;2023-04-24T06:20:05;10.90;16.70
42365;DHT22;28498;54.400;18.566;2023-04-24T06:22:33;11.20;23.40
42365;DHT22;28498;54.400;18.566;2023-04-24T06:25:00;11.20;11.60
42365;DHT22;28498;54.400;18.566;2023-04-24T06:27:28;11.40;8.60
42365;DHT22;28498;54.400;18.566;2023-04-24T06:29:55;11.40;1.00
42365;DHT22;28498;54.400;18.566;2023-04-24T06:32:25;11.30;1.00
42365;DHT22;28498;54.400;18.566;2023-04-24T06:34:52;11.30;1.00
42365;DHT22;28498;54.400;18.566;2023-04-24T06:37:22;11.40;1.00
42365;DHT22;28498;54.400;18.566;2023-04-24T06:39:49;11.40;1.00
42365;DHT22;28498;54.400;18.566;2023-04-24T06:42:16;11.50;1.00
42365;DHT22;28498;54.400;18.566;2023-04-24T06:44:43;11.50;1.00
42365;DHT22;28498;54.400;18.566;2023-04-24T06:47:11;11.70;1.00
42365;DHT22;28498;54.400;18.566;2023-04-24T06:49:40;11.80;1.00
42365;DHT22;28498;54.400;18.566;2023-04-24T06:52:07;11.80;1.00
42365;DHT22;28498;54.400;18.566;2023-04-24T06:54:34;11.90;1.00
42365;DHT22;28498;54.400;18.566;2023-04-24T06:57:02;12.00;1.00
42365;DHT22;28498;54.400;18.566;2023-04-24T06:59:29;11.90;1.00
42365;DHT22;28498;54.400;18.566;2023-04-24T07:01:57;11.70;1.00
42365;DHT22;28498;54.400;18.566;2023-04-24T07:04:24;11.70;1.00
42365;DHT22;28498;54.400;18.566;2023-04-24T07:06:52;11.70;1.00
42365;DHT22;28498;54.400;18.566;2023-04-24T07:09:23;11.50;1.00
42365;DHT22;28498;54.400;18.566;2023-04-24T07:11:52;11.40;1.00
42365;DHT22;28498;54.400;18.566;2023-04-24T07:14:20;11.30;1.00
42365;DHT22;28498;54.400;18.566;2023-04-24T07:16:47;11.30;1.00
42365;DHT22;28498;54.400;18.566;2023-04-24T07:19:14;11.20;11.90
42365;DHT22;28498;54.400;18.566;2023-04-24T07:21:41;11.10;12.40
42365;DHT22;28498;54.400;18.566;2023-04-24T07:24:08;11.10;21.60
42365;DHT22;28498;54.400;18.566;2023-04-24T07:26:37;11.10;17.80
42365;DHT22;28498;54.400;18.566;2023-04-24T07:29:04;11.10;22.20
42365;DHT22;28498;54.400;18.566;2023-04-24T07:31:32;11.20;16.50
42365;DHT22;28498;54.400;18.566;2023-04-24T07:33:59;11.20;9.60
42365;DHT22;28498;54.400;18.566;2023-04-24T07:36:26;11.20;10.60
42365;DHT22;28498;54.400;18.566;2023-04-24T07:38:55;11.20;19.40
42365;DHT22;28498;54.400;18.566;2023-04-24T07:41:23;11.20;33.20
42365;DHT22;28498;54.400;18.566;2023-04-24T07:43:51;11.20;30.00
42365;DHT22;28498;54.400;18.566;2023-04-24T07:46:20;11.20;41.80
42365;DHT22;28498;54.400;18.566;2023-04-24T07:48:47;11.10;51.30
42365;DHT22;28498;54.400;18.566;2023-04-24T07:51:31;11.00;82.00
42365;DHT22;28498;54.400;18.566;2023-04-24T07:54:00;11.00;99.80
42365;DHT22;28498;54.400;18.566;2023-04-24T07:56:27;11.10;99.90
42365;DHT22;28498;54.400;18.566;2023-04-24T07:58:54;11.20;99.90
42365;DHT22;28498;54.400;18.566;2023-04-24T08:01:21;11.30;99.90
42365;DHT22;28498;54.400;18.566;2023-04-24T08:03:48;11.40;99.90
42365;DHT22;28498;54.400;18.566;2023-04-24T08:06:15;11.50;99.90
42365;DHT22;28498;54.400;18.566;2023-04-24T08:08:42;11.40;99.90
42365;DHT22;28498;54.400;18.566;2023-04-24T08:11:09;11.50;99.90
42365;DHT22;28498;54.400;18.566;2023-04-24T08:13:36;11.60;99.90
42365;DHT22;28498;54.400;18.566;2023-04-24T08:16:03;11.60;99.90
42365;DHT22;28498;54.400;18.566;2023-04-24T08:18:30;11.70;99.90
42365;DHT22;28498;54.400;18.566;2023-04-24T08:20:57;11.80;99.90
42365;DHT22;28498;54.400;18.566;2023-04-24T08:23:28;11.60;93.10
42365;DHT22;28498;54.400;18.566;2023-04-24T08:25:56;11.60;89.20
42365;DHT22;28498;54.400;18.566;2023-04-24T08:28:25;11.60;99.60
42365;DHT22;28498;54.400;18.566;2023-04-24T08:30:52;11.90;79.90
42365;DHT22;28498;54.400;18.566;2023-04-24T08:33:24;12.30;56.20
42365;DHT22;28498;54.400;18.566;2023-04-24T08:35:52;12.50;40.70
42365;DHT22;28498;54.400;18.566;2023-04-24T08:38:19;12.90;19.70
42365;DHT22;28498;54.400;18.566;2023-04-24T08:40:47;13.00;8.80
42365;DHT22;28498;54.400;18.566;2023-04-24T08:43:16;13.10;20.70
42365;DHT22;28498;54.400;18.566;2023-04-24T08:45:43;13.20;6.80
42365;DHT22;28498;54.400;18.566;2023-04-24T08:48:11;13.50;18.70
42365;DHT22;28498;54.400;18.566;2023-04-24T08:50:53;13.60;1.00
42365;DHT22;28498;54.400;18.566;2023-04-24T08:53:20;14.20;1.00
42365;DHT22;28498;54.400;18.566;2023-04-24T08:55:48;14.10;1.00
42365;DHT22;28498;54.400;18.566;2023-04-24T08:58:16;14.00;1.00
42365;DHT22;28498;54.400;18.566;2023-04-24T09:00:44;14.20;1.00
42365;DHT22;28498;54.400;18.566;2023-04-24T09:03:17;14.30;1.00
42365;DHT22;28498;54.400;18.566;2023-04-24T09:05:46;14.20;1.00
42365;DHT22;28498;54.400;18.566;2023-04-24T09:08:14;14.10;1.00
42365;DHT22;28498;54.400;18.566;2023-04-24T09:10:42;14.10;1.00
42365;DHT22;28498;54.400;18.566;2023-04-24T09:13:10;14.20;1.00
42365;DHT22;28498;54.400;18.566;2023-04-24T09:15:41;14.20;1.00
42365;DHT22;28498;54.400;18.566;2023-04-24T09:18:08;14.30;1.00
42365;DHT22;28498;54.400;18.566;2023-04-24T09:20:35;14.20;1.00
42365;DHT22;28498;54.400;18.566;2023-04-24T09:23:22;14.10;1.00
42365;DHT22;28498;54.400;18.566;2023-04-24T09:25:54;14.40;1.00
42365;DHT22;28498;54.400;18.566;2023-04-24T09:28:35;14.40;1.00
42365;DHT22;28498;54.400;18.566;2023-04-24T09:31:14;14.30;1.00
42365;DHT22;28498;54.400;18.566;2023-04-24T09:33:58;14.30;1.00
42365;DHT22;28498;54.400;18.566;2023-04-24T09:36:32;14.40;1.00
42365;DHT22;28498;54.400;18.566;2023-04-24T09:39:10;14.50;1.00
42365;DHT22;28498;54.400;18.566;2023-04-24T09:41:49;14.50;1.00
42365;DHT22;28498;54.400;18.566;2023-04-24T09:44:20;14.70;1.00
42365;DHT22;28498;54.400;18.566;2023-04-24T09:49:29;14.70;1.00
42365;DHT22;28498;54.400;18.566;2023-04-24T09:52:05;15.10;1.00
42365;DHT22;28498;54.400;18.566;2023-04-24T09:54:33;15.00;1.00
42365;DHT22;28498;54.400;18.566;2023-04-24T09:57:00;14.90;1.00
42365;DHT22;28498;54.400;18.566;2023-04-24T09:59:27;14.80;1.00
42365;DHT22;28498;54.400;18.566;2023-04-24T10:01:55;14.80;1.00
42365;DHT22;28498;54.400;18.566;2023-04-24T10:04:25;14.90;1.00
42365;DHT22;28498;54.400;18.566;2023-04-24T10:06:55;15.10;1.00
42365;DHT22;28498;54.400;18.566;2023-04-24T10:09:24;14.80;1.00
42365;DHT22;28498;54.400;18.566;2023-04-24T10:11:53;14.90;1.00
42365;DHT22;28498;54.400;18.566;2023-04-24T10:14:23;15.10;1.00
42365;DHT22;28498;54.400;18.566;2023-04-24T10:16:55;15.30;1.00
42365;DHT22;28498;54.400;18.566;2023-04-24T10:19:25;15.50;1.00
42365;DHT22;28498;54.400;18.566;2023-04-24T10:21:53;15.60;1.00
42365;DHT22;28498;54.400;18.566;2023-04-24T10:24:22;15.90;1.00
42365;DHT22;28498;54.400;18.566;2023-04-24T10:26:49;16.20;1.00
42365;DHT22;28498;54.400;18.566;2023-04-24T10:29:19;16.40;1.00
42365;DHT22;28498;54.400;18.566;2023-04-24T10:31:48;16.90;1.00
42365;DHT22;28498;54.400;18.566;2023-04-24T10:34:17;17.00;99.90
42365;DHT22;28498;54.400;18.566;2023-04-24T10:36:52;17.20;99.90
42365;DHT22;28498;54.400;18.566;2023-04-24T10:39:23;17.50;99.90
42365;DHT22;28498;54.400;18.566;2023-04-24T10:41:55;17.50;99.90
42365;DHT22;28498;54.400;18.566;2023-04-24T10:44:25;17.50;99.90
42365;DHT22;28498;54.400;18.566;2023-04-24T10:47:02;17.60;99.90
42365;DHT22;28498;54.400;18.566;2023-04-24T10:49:31;17.80;99.90
42365;DHT22;28498;54.400;18.566;2023-04-24T10:52:02;17.80;99.90
42365;DHT22;28498;54.400;18.566;2023-04-24T10:54:36;17.70;63.70
42365;DHT22;28498;54.400;18.566;2023-04-24T10:59:52;17.40;89.70
42365;DHT22;28498;54.400;18.566;2023-04-24T11:02:37;17.60;93.80
42365;DHT22;28498;54.400;18.566;2023-04-24T11:05:05;18.00;24.10
42365;DHT22;28498;54.400;18.566;2023-04-24T11:10:53;18.10;99.90
42365;DHT22;28498;54.400;18.566;2023-04-24T11:13:22;18.00;97.60
42365;DHT22;28498;54.400;18.566;2023-04-24T11:16:15;18.20;99.90
42365;DHT22;28498;54.400;18.566;2023-04-24T11:18:43;18.20;1.00
42365;DHT22;28498;54.400;18.566;2023-04-24T11:21:17;18.40;99.90
42365;DHT22;28498;54.400;18.566;2023-04-24T11:23:45;18.60;1.00
42365;DHT22;28498;54.400;18.566;2023-04-24T11:26:18;18.90;1.00
42365;DHT22;28498;54.400;18.566;2023-04-24T11:28:49;19.00;45.00
42365;DHT22;28498;54.400;18.566;2023-04-24T11:31:38;19.10;99.90
42365;DHT22;28498;54.400;18.566;2023-04-24T11:34:07;19.30;99.90
42365;DHT22;28498;54.400;18.566;2023-04-24T11:36:35;19.40;45.90
42365;DHT22;28498;54.400;18.566;2023-04-24T11:39:02;19.30;1.00
42365;DHT22;28498;54.400;18.566;2023-04-24T11:41:30;19.30;99.90
42365;DHT22;28498;54.400;18.566;2023-04-24T11:43:57;19.30;99.90
42365;DHT22;28498;54.400;18.566;2023-04-24T11:46:28;19.20;99.90
42365;DHT22;28498;54.400;18.566;2023-04-24T11:48:56;19.30;99.90
42365;DHT22;28498;54.400;18.566;2023-04-24T11:51:25;19.20;99.90
42365;DHT22;28498;54.400;18.566;2023-04-24T11:53:59;19.30;99.90
42365;DHT22;28498;54.400;18.566;2023-04-24T11:56:30;19.40;99.90
42365;DHT22;28498;54.400;18.566;2023-04-24T11:58:57;19.60;99.90
42365;DHT22;28498;54.400;18.566;2023-04-24T12:01:24;19.80;99.90
42365;DHT22;28498;54.400;18.566;2023-04-24T12:03:59;19.80;99.90
42365;DHT22;28498;54.400;18.566;2023-04-24T12:06:27;19.70;1.00
42365;DHT22;28498;54.400;18.566;2023-04-24T12:08:54;19.70;99.90
42365;DHT22;28498;54.400;18.566;2023-04-24T12:11:53;19.80;99.90
42365;DHT22;28498;54.400;18.566;2023-04-24T12:14:21;19.90;99.90
42365;DHT22;28498;54.400;18.566;2023-04-24T12:16:49;19.90;99.90
42365;DHT22;28498;54.400;18.566;2023-04-24T12:19:23;20.20;99.90
42365;DHT22;28498;54.400;18.566;2023-04-24T12:22:05;20.30;99.90
42365;DHT22;28498;54.400;18.566;2023-04-24T12:24:32;20.10;99.90
42365;DHT22;28498;54.400;18.566;2023-04-24T12:26:59;20.00;99.90
42365;DHT22;28498;54.400;18.566;2023-04-24T12:29:28;20.10;99.90
42365;DHT22;28498;54.400;18.566;2023-04-24T12:31:55;20.00;99.90
42365;DHT22;28498;54.400;18.566;2023-04-24T12:34:23;19.80;99.90
42365;DHT22;28498;54.400;18.566;2023-04-24T12:36:51;19.80;99.90
42365;DHT22;28498;54.400;18.566;2023-04-24T12:39:19;19.60;99.90
42365;DHT22;28498;54.400;18.566;2023-04-24T12:41:56;19.60;99.90
42365;DHT22;28498;54.400;18.566;2023-04-24T12:44:33;19.60;99.90
42365;DHT22;28498;54.400;18.566;2023-04-24T12:47:01;20.00;99.90
42365;DHT22;28498;54.400;18.566;2023-04-24T12:49:30;20.40;98.90
42365;DHT22;28498;54.400;18.566;2023-04-24T12:51:57;20.40;98.10
42365;DHT22;28498;54.400;18.566;2023-04-24T12:54:24;20.30;96.60
42365;DHT22;28498;54.400;18.566;2023-04-24T12:56:51;20.20;96.10
42365;DHT22;28498;54.400;18.566;2023-04-24T12:59:18;20.10;95.40
42365;DHT22;28498;54.400;18.566;2023-04-24T13:01:45;19.90;95.50
42365;DHT22;28498;54.400;18.566;2023-04-24T13:04:12;19.80;95.20
42365;DHT22;28498;54.400;18.566;2023-04-24T13:06:39;19.90;95.90
42365;DHT22;28498;54.400;18.566;2023-04-24T13:09:06;20.00;95.80
42365;DHT22;28498;54.400;18.566;2023-04-24T13:11:33;19.90;95.90
42365;DHT22;28498;54.400;18.566;2023-04-24T13:14:00;19.80;95.00
42365;DHT22;28498;54.400;18.566;2023-04-24T13:16:27;19.90;96.50
42365;DHT22;28498;54.400;18.566;2023-04-24T13:18:54;20.20;94.50
42365;DHT22;28498;54.400;18.566;2023-04-24T13:21:20;20.20;92.90
42365;DHT22;28498;54.400;18.566;2023-04-24T13:23:47;20.40;93.00
42365;DHT22;28498;54.400;18.566;2023-04-24T13:26:14;20.60;93.60
42365;DHT22;28498;54.400;18.566;2023-04-24T13:28:41;20.50;91.90
42365;DHT22;28498;54.400;18.566;2023-04-24T13:31:09;20.30;91.80
42365;DHT22;28498;54.400;18.566;2023-04-24T13:33:36;20.20;92.50
42365;DHT22;28498;54.400;18.566;2023-04-24T13:36:03;20.30;93.00
42365;DHT22;28498;54.400;18.566;2023-04-24T13:38:30;20.60;91.00
42365;DHT22;28498;54.400;18.566;2023-04-24T13:40:57;21.00;90.30
42365;DHT22;28498;54.400;18.566;2023-04-24T13:43:24;21.00;90.50
42365;DHT22;28498;54.400;18.566;2023-04-24T13:45:51;21.10;90.00
42365;DHT22;28498;54.400;18.566;2023-04-24T13:48:18;21.10;86.00
42365;DHT22;28498;54.400;18.566;2023-04-24T13:50:45;21.20;84.70
42365;DHT22;28498;54.400;18.566;2023-04-24T13:53:15;21.40;83.00
42365;DHT22;28498;54.400;18.566;2023-04-24T13:55:42;21.60;79.00
42365;DHT22;28498;54.400;18.566;2023-04-24T13:58:09;21.70;77.10
42365;DHT22;28498;54.400;18.566;2023-04-24T14:00:36;21.80;77.80
42365;DHT22;28498;54.400;18.566;2023-04-24T14:03:03;22.20;76.10
42365;DHT22;28498;54.400;18.566;2023-04-24T14:05:30;22.20;75.30
42365;DHT22;28498;54.400;18.566;2023-04-24T14:07:57;21.80;77.00
42365;DHT22;28498;54.400;18.566;2023-04-24T14:10:24;21.90;76.60
42365;DHT22;28498;54.400;18.566;2023-04-24T14:12:52;22.30;77.10
42365;DHT22;28498;54.400;18.566;2023-04-24T14:15:19;22.90;75.00
42365;DHT22;28498;54.400;18.566;2023-04-24T14:17:47;23.30;72.10
42365;DHT22;28498;54.400;18.566;2023-04-24T14:20:14;23.50;72.50
42365;DHT22;28498;54.400;18.566;2023-04-24T14:22:41;24.10;68.70
42365;DHT22;28498;54.400;18.566;2023-04-24T14:25:09;24.20;68.60
42365;DHT22;28498;54.400;18.566;2023-04-24T14:27:36;23.80;68.40
42365;DHT22;28498;54.400;18.566;2023-04-24T14:30:03;23.70;67.90
42365;DHT22;28498;54.400;18.566;2023-04-24T14:32:31;23.80;67.10
42365;DHT22;28498;54.400;18.566;2023-04-24T14:34:58;23.90;66.40
42365;DHT22;28498;54.400;18.566;2023-04-24T14:37:25;23.80;67.00
42365;DHT22;28498;54.400;18.566;2023-04-24T14:39:52;23.90;66.60
42365;DHT22;28498;54.400;18.566;2023-04-24T14:42:39;24.00;66.00
42365;DHT22;28498;54.400;18.566;2023-04-24T14:45:06;23.70;65.00
42365;DHT22;28498;54.400;18.566;2023-04-24T14:47:35;23.90;66.80
42365;DHT22;28498;54.400;18.566;2023-04-24T14:50:04;23.80;66.20
42365;DHT22;28498;54.400;18.566;2023-04-24T14:52:31;22.90;67.40
42365;DHT22;28498;54.400;18.566;2023-04-24T14:54:58;22.30;69.50
42365;DHT22;28498;54.400;18.566;2023-04-24T14:57:25;21.70;71.00
42365;DHT22;28498;54.400;18.566;2023-04-24T14:59:52;21.40;72.50
42365;DHT22;28498;54.400;18.566;2023-04-24T15:02:19;21.40;74.00
42365;DHT22;28498;54.400;18.566;2023-04-24T15:04:48;21.40;73.50
42365;DHT22;28498;54.400;18.566;2023-04-24T15:07:15;21.30;75.50
42365;DHT22;28498;54.400;18.566;2023-04-24T15:09:42;20.80;76.70
42365;DHT22;28498;54.400;18.566;2023-04-24T15:12:09;20.60;77.80
42365;DHT22;28498;54.400;18.566;2023-04-24T15:14:39;20.10;80.10
42365;DHT22;28498;54.400;18.566;2023-04-24T15:17:06;19.80;83.80
42365;DHT22;28498;54.400;18.566;2023-04-24T15:19:33;19.70;86.10
42365;DHT22;28498;54.400;18.566;2023-04-24T15:22:00;19.60;89.80
42365;DHT22;28498;54.400;18.566;2023-04-24T15:24:27;19.50;90.60
42365;DHT22;28498;54.400;18.566;2023-04-24T15:26:54;19.50;90.50
42365;DHT22;28498;54.400;18.566;2023-04-24T15:29:24;19.50;91.60
42365;DHT22;28498;54.400;18.566;2023-04-24T15:31:51;19.40;92.10
42365;DHT22;28498;54.400;18.566;2023-04-24T15:34:18;19.30;92.00
42365;DHT22;28498;54.400;18.566;2023-04-24T15:36:46;19.10;91.90